Time;durP1;ratioP1;P1;durP2;ratioP2;P2;SDS_P1;SDS_P2;PMS_P1;PMS_P2;Temp;Humidity;BMP_temperature;BMP_pressure;BME280_temperature;BME280_humidity;BME280_pressure;Samples;Min_cycle;Max_cycle;Signal;HPM_P1;HPM_P2
2022/05/31 04:57:07;;;;;;;2.13;1.10;;;;;;;14.07;100.00;99318.44;5330826;24;1323852;-90
2022/05/31 05:06:05;;;;;;;2.07;1.40;;;;;;;14.18;100.00;99319.38;4958200;24;20250;-90
2022/05/31 05:11:32;;;;;;;1.23;1.13;;;;;;;14.33;100.00;99316.88;5141956;24;20255;-89
2022/05/31 05:14:21;;;;;;;1.43;1.13;;;;;;;14.42;100.00;99312.69;5607759;24;20328;-90
2022/05/31 05:16:59;;;;;;;2.47;1.30;;;;;;;14.65;100.00;99311.59;4777140;30;20243;-91
2022/05/31 05:19:29;;;;;;;1.10;1.00;;;;;;;14.90;100.00;99309.16;4758044;30;20270;-90
2022/05/31 05:21:58;;;;;;;1.67;1.10;;;;;;;15.11;100.00;99306.66;4752982;30;20329;-91
2022/05/31 05:24:25;;;;;;;1.20;1.10;;;;;;;15.26;100.00;99307.59;4757864;30;20241;-91
2022/05/31 05:27:11;;;;;;;1.77;1.20;;;;;;;15.41;100.00;99309.59;4760070;30;20240;-92
2022/05/31 05:33:05;;;;;;;2.23;1.40;;;;;;;15.81;94.69;99325.31;4774175;29;20281;-93
2022/05/31 05:35:34;;;;;;;2.13;0.97;;;;;;;15.99;91.79;99326.75;4744326;30;20328;-93
2022/05/31 05:38:09;;;;;;;1.37;0.90;;;;;;;16.17;87.02;99321.72;4752345;30;20249;-92
2022/05/31 05:40:56;;;;;;;1.50;1.10;;;;;;;16.36;85.28;99322.06;4733166;30;20261;-93
2022/05/31 05:43:41;;;;;;;1.37;0.90;;;;;;;16.50;84.66;99322.38;4757803;30;20278;-94
2022/05/31 05:46:21;;;;;;;2.03;1.30;;;;;;;16.61;83.86;99314.06;4744316;30;20251;-94
2022/05/31 05:48:49;;;;;;;1.27;1.13;;;;;;;16.74;83.84;99326.28;4747293;30;20787;-94
2022/05/31 05:51:24;;;;;;;1.63;1.03;;;;;;;16.86;81.95;99324.13;4759272;30;20243;-95
2022/05/31 05:54:09;;;;;;;2.13;1.33;;;;;;;17.06;81.45;99326.06;4773203;30;20245;-94
2022/05/31 05:56:55;;;;;;;2.50;1.37;;;;;;;17.21;80.40;99326.09;4769690;30;20245;-95
2022/05/31 05:59:40;;;;;;;1.33;1.23;;;;;;;17.31;80.29;99322.56;4763599;30;20323;-96
2022/05/31 06:02:31;;;;;;;1.40;1.30;;;;;;;17.40;77.87;99320.94;4778103;30;20288;-96
2022/05/31 06:05:35;;;;;;;2.40;1.30;;;;;;;17.52;78.34;99324.19;4766481;30;20226;-94
2022/05/31 06:08:06;;;;;;;2.40;1.20;;;;;;;17.66;78.28;99328.00;4750398;30;20623;-94
2022/05/31 06:10:40;;;;;;;2.47;1.10;;;;;;;17.68;77.07;99319.59;4750209;30;20235;-94
2022/05/31 06:13:13;;;;;;;2.17;1.27;;;;;;;17.72;76.89;99329.63;4750527;30;20245;-94
2022/05/31 06:15:43;;;;;;;4.13;3.17;;;;;;;17.85;77.18;99329.03;4738299;30;20661;-92
2022/05/31 06:18:18;;;;;;;18.80;14.53;;;;;;;17.99;75.71;99323.88;4749781;30;20255;-93
2022/05/31 06:20:49;;;;;;;8.03;6.80;;;;;;;18.14;74.14;99326.53;4763349;30;20268;-93
2022/05/31 06:23:16;;;;;;;2.00;1.70;;;;;;;18.27;73.94;99328.66;4760961;30;20242;-93
2022/05/31 06:25:42;;;;;;;1.43;1.23;;;;;;;18.35;70.68;99335.38;4762944;30;20238;-92
2022/05/31 06:28:25;;;;;;;2.93;1.50;;;;;;;18.45;70.52;99333.47;4760123;30;20997;-93
2022/05/31 06:30:52;;;;;;;1.40;1.30;;;;;;;18.59;70.99;99330.16;4759246;30;20329;-93
2022/05/31 06:33:19;;;;;;;3.47;1.30;;;;;;;18.72;69.41;99330.38;4775369;30;20303;-93
2022/05/31 06:35:48;;;;;;;1.90;1.50;;;;;;;18.81;68.63;99325.16;4764707;29;20887;-93
2022/05/31 06:38:17;;;;;;;1.53;1.30;;;;;;;18.94;67.86;99329.97;4766693;30;20250;-93
2022/05/31 06:40:45;;;;;;;2.50;1.20;;;;;;;19.00;65.43;99326.13;4750403;29;20246;-92
2022/05/31 06:43:31;;;;;;;1.47;1.10;;;;;;;19.03;65.01;99325.56;4763595;30;20253;-92
2022/05/31 06:46:36;;;;;;;1.63;1.30;;;;;;;19.25;61.94;99325.13;4769748;30;20235;-94
2022/05/31 06:49:22;;;;;;;0.97;0.87;;;;;;;19.42;60.57;99316.56;4764227;30;20369;-91
2022/05/31 06:57:56;;;;;;;8.87;1.70;;;;;;;20.15;57.43;99317.25;4741043;30;20252;-94
2022/05/31 07:00:35;;;;;;;4.30;1.10;;;;;;;20.34;56.16;99309.16;4762219;30;20285;-92
2022/05/31 07:03:04;;;;;;;1.57;1.20;;;;;;;20.42;57.74;99308.50;4755267;30;20320;-92
2022/05/31 07:05:33;;;;;;;1.97;1.40;;;;;;;20.49;56.17;99312.47;4745117;30;20245;-93
2022/05/31 07:08:07;;;;;;;1.67;1.07;;;;;;;20.61;56.17;99306.63;4757228;30;20781;-93
2022/05/31 07:10:56;;;;;;;2.07;1.33;;;;;;;20.75;56.14;99301.25;4762118;30;20236;-91
2022/05/31 07:13:41;;;;;;;3.23;1.40;;;;;;;20.93;56.13;99295.00;4766263;30;20257;-92
2022/05/31 07:16:32;;;;;;;2.27;1.00;;;;;;;20.99;56.36;99293.84;4774393;30;20255;-91
2022/05/31 07:19:27;;;;;;;1.33;1.10;;;;;;;21.08;56.52;99297.50;4750940;30;20240;-92
2022/05/31 07:22:15;;;;;;;4.43;1.20;;;;;;;21.05;56.42;99289.91;4761379;30;20233;-93
2022/05/31 07:24:43;;;;;;;1.50;0.90;;;;;;;21.04;56.92;99291.03;4760799;30;20242;-93
2022/05/31 07:27:22;;;;;;;1.00;0.80;;;;;;;20.78;58.52;99285.16;4754610;30;20245;-94
2022/05/31 07:29:55;;;;;;;1.77;1.00;;;;;;;20.99;57.44;99280.22;4750133;30;20297;-92
2022/05/31 07:32:22;;;;;;;2.20;1.03;;;;;;;21.05;56.93;99276.28;4742459;30;20256;-93
2022/05/31 07:35:09;;;;;;;1.67;1.20;;;;;;;20.96;57.87;99273.44;4753079;30;20244;-93
2022/05/31 07:37:36;;;;;;;2.10;1.20;;;;;;;20.85;60.32;99271.16;4745393;30;20238;-92
2022/05/31 07:40:04;;;;;;;2.67;1.40;;;;;;;20.86;59.25;99270.03;4752750;30;20264;-93
2022/05/31 07:42:32;;;;;;;1.43;1.33;;;;;;;20.89;60.05;99269.47;4756103;30;20238;-90
2022/05/31 07:45:00;;;;;;;2.27;1.30;;;;;;;20.80;59.80;99261.16;4744366;30;20293;-95
2022/05/31 07:47:27;;;;;;;1.73;1.40;;;;;;;20.59;59.58;99263.38;4760431;30;20329;-96
2022/05/31 07:49:54;;;;;;;1.60;1.20;;;;;;;20.58;61.48;99253.56;4767383;30;20229;-95
2022/05/31 07:52:47;;;;;;;2.23;1.37;;;;;;;20.57;61.47;99249.25;4779616;29;20261;-95
2022/05/31 07:56:00;;;;;;;2.20;1.43;;;;;;;20.63;62.66;99261.66;4748029;30;20253;-94
2022/05/31 07:58:47;;;;;;;1.63;1.37;;;;;;;20.48;63.36;99258.38;4767133;30;20239;-94
2022/05/31 08:01:25;;;;;;;3.47;1.40;;;;;;;20.50;65.80;99264.31;4770818;30;20241;-95
2022/05/31 08:03:58;;;;;;;2.77;1.60;;;;;;;20.67;66.77;99259.16;4747701;30;20328;-94
2022/05/31 08:06:29;;;;;;;4.53;2.00;;;;;;;20.78;66.44;99265.28;4748886;30;20245;-95
2022/05/31 08:08:57;;;;;;;3.83;1.60;;;;;;;20.88;65.44;99263.22;4763105;30;20236;-95
2022/05/31 08:11:26;;;;;;;2.93;1.60;;;;;;;20.92;66.37;99264.25;4764204;30;20252;-95
2022/05/31 08:13:54;;;;;;;3.37;2.10;;;;;;;20.93;67.37;99259.59;4762401;30;20259;-95
2022/05/31 08:16:23;;;;;;;2.90;1.83;;;;;;;20.99;69.32;99250.25;4751637;30;20250;-96
2022/05/31 08:18:55;;;;;;;2.13;1.83;;;;;;;20.98;69.81;99260.34;4751604;30;20238;-94
2022/05/31 08:21:28;;;;;;;12.37;3.37;;;;;;;21.00;67.84;99243.69;4752465;30;20246;-94
2022/05/31 08:24:07;;;;;;;5.83;1.77;;;;;;;20.99;68.40;99264.69;4754777;30;20245;-96
2022/05/31 08:26:55;;;;;;;1.73;1.50;;;;;;;21.01;69.33;99264.38;4753226;30;20241;-93
2022/05/31 08:29:23;;;;;;;3.23;1.70;;;;;;;21.02;68.62;99257.81;4759082;30;20302;-92
2022/05/31 08:31:50;;;;;;;2.43;1.60;;;;;;;21.15;71.06;99242.66;4759234;30;20318;-93
2022/05/31 08:34:16;;;;;;;2.67;1.40;;;;;;;21.14;68.08;99236.41;4751181;30;20840;-95
2022/05/31 08:36:44;;;;;;;3.00;1.60;;;;;;;21.22;69.30;99246.63;4756127;30;20265;-93
2022/05/31 08:39:11;;;;;;;2.07;1.70;;;;;;;21.33;70.90;99239.88;4751874;30;20233;-94
2022/05/31 08:41:46;;;;;;;2.07;1.53;;;;;;;21.49;66.99;99241.25;4744391;30;20242;-93
2022/05/31 08:44:28;;;;;;;3.20;1.50;;;;;;;21.56;67.92;99240.06;4749988;30;20235;-93
2022/05/31 08:47:19;;;;;;;1.90;1.40;;;;;;;21.59;64.91;99236.72;4782609;29;20702;-92
2022/05/31 08:52:42;;;;;;;2.63;1.50;;;;;;;21.68;62.26;99234.91;4762581;30;20243;-91
2022/05/31 08:58:07;;;;;;;8.43;1.77;;;;;;;21.80;56.12;99218.84;4765300;29;21358;-92
2022/05/31 09:00:40;;;;;;;5.63;1.40;;;;;;;21.87;57.60;99219.25;4745344;30;20235;-94
2022/05/31 09:03:30;;;;;;;1.30;1.00;;;;;;;21.83;55.66;99213.63;4764132;30;20285;-93
2022/05/31 09:06:05;;;;;;;3.80;1.10;;;;;;;21.73;56.42;99208.34;4772000;30;20242;-94
2022/05/31 09:08:36;;;;;;;1.50;1.10;;;;;;;21.88;56.46;99210.75;4751516;30;20290;-93
2022/05/31 09:11:11;;;;;;;1.40;0.90;;;;;;;22.00;52.71;99213.03;4777144;29;20236;-93
2022/05/31 09:13:58;;;;;;;1.10;1.00;;;;;;;22.19;52.16;99199.25;4748562;30;20233;-95
2022/05/31 09:16:52;;;;;;;3.03;1.20;;;;;;;22.18;55.44;99205.81;4763301;30;20282;-95
2022/05/31 09:19:41;;;;;;;1.67;1.30;;;;;;;22.23;52.56;99198.34;4778664;30;20624;-93
2022/05/31 09:22:08;;;;;;;2.40;1.10;;;;;;;22.30;52.04;99208.84;4776719;30;20241;-94
2022/05/31 09:24:42;;;;;;;1.63;1.30;;;;;;;22.23;51.99;99214.72;4763240;30;20242;-92
2022/05/31 09:27:13;;;;;;;1.77;1.50;;;;;;;22.34;51.31;99215.31;4760282;30;20331;-93
2022/05/31 09:30:07;;;;;;;1.30;1.20;;;;;;;22.35;53.32;99216.88;4754653;30;20328;-93
2022/05/31 09:32:43;;;;;;;1.60;1.50;;;;;;;22.59;54.33;99214.72;4766149;30;20237;-96
2022/05/31 09:35:38;;;;;;;2.90;1.43;;;;;;;22.67;55.63;99221.38;4775838;29;20243;-96
2022/05/31 09:38:24;;;;;;;1.73;1.20;;;;;;;22.82;56.99;99219.09;4779691;29;20252;-95
2022/05/31 09:41:05;;;;;;;1.67;1.57;;;;;;;22.91;57.50;99218.38;4766039;30;20333;-96
2022/05/31 09:43:40;;;;;;;1.90;1.23;;;;;;;22.87;58.21;99222.84;4755347;30;20782;-96
2022/05/31 09:46:09;;;;;;;2.13;1.47;;;;;;;22.91;58.59;99219.16;4773844;30;20282;-96
2022/05/31 09:48:50;;;;;;;1.83;1.53;;;;;;;23.13;58.40;99219.19;4766784;30;20233;-96
2022/05/31 09:51:27;;;;;;;1.63;1.27;;;;;;;23.09;57.58;99215.47;4757794;30;20242;-96
2022/05/31 09:57:19;;;;;;;1.40;1.30;;;;;;;23.15;54.14;99206.00;4688566;30;20235;-96
2022/05/31 10:00:15;;;;;;;1.97;1.17;;;;;;;23.28;52.01;99213.31;4763122;29;20258;-96
2022/05/31 10:02:57;;;;;;;1.10;1.10;;;;;;;23.28;50.51;99196.13;4758862;30;20730;-96
2022/05/31 10:05:24;;;;;;;2.67;1.23;;;;;;;23.33;50.18;99201.44;4748999;30;20306;-96
2022/05/31 10:07:51;;;;;;;1.90;1.20;;;;;;;23.48;49.00;99200.25;4752854;30;20710;-94
2022/05/31 10:10:24;;;;;;;1.50;1.40;;;;;;;23.65;46.95;99192.97;4745804;30;20762;-95
2022/05/31 10:12:54;;;;;;;1.40;1.20;;;;;;;23.88;47.94;99196.41;4773062;30;20235;-94
2022/05/31 10:15:31;;;;;;;1.40;1.30;;;;;;;23.98;45.27;99189.84;4763422;30;20778;-95
2022/05/31 10:18:04;;;;;;;1.00;0.90;;;;;;;24.03;46.59;99190.47;4760504;29;20227;-95
2022/05/31 10:20:33;;;;;;;1.30;1.20;;;;;;;24.17;46.22;99197.81;4746108;30;20235;-95
2022/05/31 10:23:15;;;;;;;2.42;1.15;;;;;;;24.13;46.73;99189.38;4754994;30;20336;-95
2022/05/31 10:26:01;;;;;;;1.48;1.10;;;;;;;24.34;47.10;99203.28;4769501;30;20284;-95
2022/05/31 10:29:06;;;;;;;2.17;1.10;;;;;;;24.42;48.32;99191.53;4765417;30;20235;-95
2022/05/31 10:31:57;;;;;;;2.05;1.83;;;;;;;24.45;46.70;99175.25;4760466;30;20243;-95
2022/05/31 10:34:27;;;;;;;1.63;1.52;;;;;;;24.47;46.12;99169.47;4763040;30;20227;-94
2022/05/31 10:36:57;;;;;;;3.17;1.70;;;;;;;24.64;47.23;99163.97;4750752;30;20680;-96
2022/05/31 10:39:30;;;;;;;2.33;2.17;;;;;;;24.78;46.90;99158.34;4760389;30;20283;-94
2022/05/31 10:41:59;;;;;;;1.88;1.40;;;;;;;24.99;46.26;99168.34;4765741;30;20239;-95
2022/05/31 10:44:43;;;;;;;1.95;1.17;;;;;;;25.06;45.78;99153.31;4744782;30;20238;-94
2022/05/31 10:47:13;;;;;;;2.03;1.60;;;;;;;25.16;47.38;99148.28;4756615;30;20507;-94
2022/05/31 10:49:40;;;;;;;2.13;1.30;;;;;;;25.28;46.74;99147.63;4763207;30;20257;-94
2022/05/31 10:52:53;;;;;;;4.38;1.58;;;;;;;25.37;45.35;99149.22;4755975;30;20239;-95
2022/05/31 10:55:35;;;;;;;1.55;1.38;;;;;;;25.39;45.56;99149.66;4699436;30;20320;-96
2022/05/31 10:58:03;;;;;;;1.40;1.30;;;;;;;25.40;46.79;99145.81;4768339;30;20239;-96
2022/05/31 11:00:59;;;;;;;1.88;1.30;;;;;;;25.55;47.19;99152.72;4770908;30;20243;-95
2022/05/31 11:03:32;;;;;;;2.38;1.20;;;;;;;25.59;47.93;99150.91;4759183;30;20243;-95
2022/05/31 11:06:14;;;;;;;1.58;1.25;;;;;;;25.61;46.89;99140.44;4773469;30;20236;-95
2022/05/31 11:12:24;;;;;;;1.70;1.20;;;;;;;25.86;45.66;99142.22;4776365;30;20249;-96
2022/05/31 11:15:15;;;;;;;2.80;1.40;;;;;;;25.75;44.27;99134.69;4752795;30;20248;-94
2022/05/31 11:18:05;;;;;;;1.70;1.23;;;;;;;25.88;42.83;99139.16;4746232;30;20255;-94
2022/05/31 11:20:57;;;;;;;2.67;1.20;;;;;;;25.84;42.95;99139.00;4758450;30;20242;-95
2022/05/31 11:23:40;;;;;;;5.03;1.42;;;;;;;25.74;43.91;99124.84;4736735;30;20257;-96
2022/05/31 11:26:39;;;;;;;1.50;1.38;;;;;;;25.90;43.61;99122.34;4771689;30;20250;-95
2022/05/31 11:29:37;;;;;;;0.85;0.85;;;;;;;26.08;44.10;99129.34;4759531;30;20242;-95
2022/05/31 11:32:09;;;;;;;1.30;1.20;;;;;;;26.21;43.58;99123.59;4773960;30;20244;-96
2022/05/31 11:35:07;;;;;;;1.95;1.33;;;;;;;26.33;43.11;99114.63;4771991;30;20238;-95
2022/05/31 11:37:47;;;;;;;1.63;1.20;;;;;;;26.40;40.87;99120.38;4769690;30;20332;-95
2022/05/31 11:40:30;;;;;;;1.70;1.30;;;;;;;26.41;39.90;99121.19;4746861;30;20257;-95
2022/05/31 11:43:14;;;;;;;2.55;1.10;;;;;;;26.58;40.13;99121.03;4745122;30;20235;-96
2022/05/31 11:46:02;;;;;;;1.98;1.30;;;;;;;26.46;40.67;99119.03;4749569;30;20246;-96
2022/05/31 11:48:42;;;;;;;2.10;1.30;;;;;;;26.51;40.62;99118.81;4744240;30;20245;-96
2022/05/31 11:51:31;;;;;;;1.05;1.00;;;;;;;26.40;40.45;99117.66;4742992;30;20303;-94
2022/05/31 11:54:18;;;;;;;1.20;1.10;;;;;;;26.41;41.11;99108.25;4741542;30;20761;-96
2022/05/31 11:57:01;;;;;;;2.60;1.20;;;;;;;26.53;39.75;99113.81;4749853;30;20237;-96
2022/05/31 11:59:46;;;;;;;1.13;0.98;;;;;;;26.76;37.33;99108.72;4769354;30;20333;-94
2022/05/31 12:02:29;;;;;;;3.10;1.17;;;;;;;26.72;39.90;99103.13;4772992;29;20238;-96
2022/05/31 12:05:20;;;;;;;1.50;0.90;;;;;;;26.80;39.12;99093.16;4746377;30;20248;-95
2022/05/31 12:07:52;;;;;;;1.35;0.90;;;;;;;26.65;40.22;99088.31;4742004;30;20254;-95
2022/05/31 12:10:26;;;;;;;1.10;1.00;;;;;;;26.79;40.58;99091.56;4742587;29;20242;-95
2022/05/31 12:12:55;;;;;;;1.98;1.17;;;;;;;26.56;40.68;99088.41;4757932;30;20258;-96
2022/05/31 12:15:25;;;;;;;1.10;0.95;;;;;;;26.63;41.06;99088.66;4755113;30;20363;-94
2022/05/31 12:18:01;;;;;;;1.50;1.10;;;;;;;26.86;40.24;99082.78;4754623;30;20239;-96
2022/05/31 12:20:42;;;;;;;1.48;1.00;;;;;;;27.13;40.70;99082.97;4754166;30;20258;-96
2022/05/31 12:23:17;;;;;;;3.55;1.67;;;;;;;27.12;40.12;99094.28;4746574;30;20237;-94
2022/05/31 12:25:49;;;;;;;3.22;1.08;;;;;;;27.14;39.29;99073.56;4752983;30;20268;-95
2022/05/31 12:28:28;;;;;;;2.85;1.10;;;;;;;27.24;39.06;99086.06;4740015;30;20238;-96
2022/05/31 12:31:00;;;;;;;1.10;1.00;;;;;;;27.35;37.62;99084.47;4774313;30;20656;-96
2022/05/31 12:36:09;;;;;;;2.05;1.00;;;;;;;27.30;37.63;99081.94;4784161;30;20249;-95
2022/05/31 12:39:04;;;;;;;3.00;0.90;;;;;;;27.31;39.72;99089.03;4757334;30;20255;-95
2022/05/31 12:41:40;;;;;;;0.90;0.80;;;;;;;27.44;37.93;99074.13;4755843;30;20715;-96
2022/05/31 12:44:14;;;;;;;1.35;0.98;;;;;;;27.47;36.97;99084.47;4755635;30;20326;-96
2022/05/31 12:46:46;;;;;;;1.63;1.00;;;;;;;27.45;37.63;99069.44;4755339;30;20706;-95
2022/05/31 12:49:24;;;;;;;1.15;1.00;;;;;;;27.51;38.15;99062.59;4746167;30;20250;-94
2022/05/31 12:52:11;;;;;;;1.05;1.02;;;;;;;27.74;38.69;99055.47;4759667;30;20253;-95
2022/05/31 12:54:45;;;;;;;3.83;1.00;;;;;;;27.93;38.17;99063.91;4775313;30;20235;-95
2022/05/31 12:58:26;;;;;;;1.95;0.80;;;;;;;27.89;37.16;99056.72;4769807;30;20250;-94
2022/05/31 13:00:33;;;;;;;2.17;1.20;;;;;;;27.96;38.07;99056.91;4785130;30;20239;-95
2022/05/31 13:03:05;;;;;;;2.67;1.00;;;;;;;28.10;38.52;99054.56;4768578;30;20242;-96
2022/05/31 13:05:39;;;;;;;1.98;1.25;;;;;;;27.98;37.76;99040.84;4740009;30;20242;-95
2022/05/31 13:08:11;;;;;;;1.38;0.98;;;;;;;28.14;37.97;99055.50;4749331;30;20291;-95
2022/05/31 13:19:34;;;;;;;3.15;1.00;;;;;;;28.34;36.33;99043.50;4759774;30;20237;-95
2022/05/31 13:21:58;;;;;;;1.10;1.00;;;;;;;31.03;32.09;99032.31;4745354;30;20696;-96
2022/05/31 13:24:25;;;;;;;2.70;1.00;;;;;;;31.11;31.49;99023.00;4729109;30;20274;-96
2022/05/31 13:26:52;;;;;;;1.00;1.00;;;;;;;31.65;30.90;99028.19;4739409;30;20303;-96
2022/05/31 13:29:23;;;;;;;2.00;1.20;;;;;;;32.25;30.22;99028.22;4739296;30;20327;-95
2022/05/31 13:31:49;;;;;;;1.50;1.30;;;;;;;32.69;29.17;99029.13;4727660;30;20236;-95
2022/05/31 13:34:37;;;;;;;1.92;1.02;;;;;;;32.66;29.20;99015.25;4743631;30;20247;-95
2022/05/31 13:37:19;;;;;;;1.48;1.20;;;;;;;32.91;28.78;99015.47;4742546;30;20240;-94
2022/05/31 13:39:47;;;;;;;2.38;1.20;;;;;;;32.91;29.04;99009.91;4741196;30;20277;-95
2022/05/31 13:42:20;;;;;;;2.50;1.17;;;;;;;32.85;29.54;99014.22;4722531;30;20323;-95
2022/05/31 13:44:53;;;;;;;1.65;1.10;;;;;;;33.06;28.63;99014.41;4740821;30;20239;-96
2022/05/31 13:47:20;;;;;;;1.35;1.10;;;;;;;33.46;28.10;99000.44;4742978;30;20263;-95
2022/05/31 13:49:49;;;;;;;1.50;1.00;;;;;;;34.05;26.86;98998.41;4727896;30;20251;-96
2022/05/31 13:52:18;;;;;;;2.95;1.40;;;;;;;34.65;26.25;99001.38;4735107;30;20243;-95
2022/05/31 13:54:45;;;;;;;1.65;1.20;;;;;;;35.56;24.86;98997.03;4757720;30;20228;-95
2022/05/31 13:57:15;;;;;;;2.03;1.27;;;;;;;37.65;22.04;98995.00;4745252;30;20326;-96
2022/05/31 13:59:48;;;;;;;3.13;1.20;;;;;;;39.29;21.06;98983.84;4739348;30;20243;-95
2022/05/31 14:02:53;;;;;;;2.25;1.20;;;;;;;40.22;18.81;98992.13;4731650;30;20240;-96
2022/05/31 14:05:30;;;;;;;1.45;1.08;;;;;;;41.55;17.63;98977.25;4748767;30;20259;-96
2022/05/31 14:07:57;;;;;;;2.47;1.00;;;;;;;41.51;17.74;98985.00;4731665;30;20253;-96
2022/05/31 14:10:27;;;;;;;1.30;1.20;;;;;;;42.10;17.52;98982.50;4746015;30;20252;-95
2022/05/31 14:13:06;;;;;;;3.10;1.30;;;;;;;43.04;16.63;98984.78;4749600;30;20923;-95
2022/05/31 14:15:36;;;;;;;1.95;1.20;;;;;;;42.92;16.05;98971.53;4755441;30;20242;-95
2022/05/31 14:18:05;;;;;;;3.05;1.10;;;;;;;42.97;15.64;98965.34;4751086;30;20315;-95
2022/05/31 14:20:36;;;;;;;2.33;1.30;;;;;;;43.04;16.04;98965.88;4752691;30;20342;-95
2022/05/31 14:23:24;;;;;;;1.85;1.30;;;;;;;42.35;16.08;98961.28;4746321;30;20235;-95
2022/05/31 14:25:52;;;;;;;3.40;1.20;;;;;;;41.85;16.87;98970.41;4740458;30;20718;-96
2022/05/31 14:28:21;;;;;;;1.60;1.40;;;;;;;41.14;16.62;98959.06;4760191;30;20690;-95
2022/05/31 14:30:54;;;;;;;2.55;1.38;;;;;;;40.68;17.32;98951.00;4760367;30;20235;-96
2022/05/31 14:33:23;;;;;;;2.08;1.25;;;;;;;39.01;19.41;98942.38;4764172;30;20234;-96
2022/05/31 14:35:52;;;;;;;1.25;1.15;;;;;;;36.83;22.39;98937.06;4758766;30;20342;-96
2022/05/31 14:38:35;;;;;;;1.88;1.10;;;;;;;34.19;25.95;98940.13;4784430;30;20238;-96
2022/05/31 14:41:30;;;;;;;1.90;1.38;;;;;;;32.47;28.11;98935.81;4761292;30;20239;-95
2022/05/31 14:43:59;;;;;;;3.47;1.13;;;;;;;31.74;29.75;98937.34;4770709;30;20311;-94
2022/05/31 14:46:35;;;;;;;1.88;1.27;;;;;;;31.00;30.88;98937.03;4757160;30;20253;-95
2022/05/31 14:49:18;;;;;;;2.95;1.42;;;;;;;30.71;32.55;98931.41;4759061;30;20292;-95
2022/05/31 14:51:46;;;;;;;4.40;1.98;;;;;;;30.61;34.26;98930.06;4773590;30;20244;-96
2022/05/31 14:54:35;;;;;;;4.68;3.97;;;;;;;30.05;33.35;98927.06;4742394;30;20250;-95
2022/05/31 14:57:11;;;;;;;2.05;1.80;;;;;;;29.83;33.22;98927.75;4759836;30;20322;-95
2022/05/31 14:59:38;;;;;;;2.72;1.70;;;;;;;29.65;35.16;98932.91;4764070;30;20321;-96
2022/05/31 15:02:17;;;;;;;3.22;1.90;;;;;;;29.35;36.14;98929.13;4759481;29;20239;-95
2022/05/31 15:04:50;;;;;;;2.40;1.50;;;;;;;29.14;35.54;98919.16;4758037;29;20223;-96
2022/05/31 15:07:23;;;;;;;2.75;1.45;;;;;;;28.98;37.19;98921.16;4760756;30;20250;-94
2022/05/31 15:10:33;;;;;;;4.78;1.63;;;;;;;28.67;37.98;98916.44;4749564;29;20331;-95
2022/05/31 15:18:56;;;;;;;2.90;1.30;;;;;;;28.47;38.29;98928.50;4760734;30;20246;-94
2022/05/31 15:21:25;;;;;;;1.92;1.40;;;;;;;28.50;38.60;98921.50;4763600;30;20262;-96
2022/05/31 15:23:52;;;;;;;1.95;1.48;;;;;;;28.32;39.50;98915.56;4758205;30;20266;-94
2022/05/31 15:26:20;;;;;;;2.25;1.35;;;;;;;28.21;39.37;98914.47;4743824;30;20597;-96
2022/05/31 15:28:46;;;;;;;2.80;1.42;;;;;;;28.23;40.32;98906.66;4758283;30;20325;-95
2022/05/31 15:31:36;;;;;;;1.80;1.35;;;;;;;28.19;39.18;98898.28;4762808;30;20242;-96
2022/05/31 15:34:23;;;;;;;2.40;1.40;;;;;;;28.17;39.15;98891.53;4746175;30;20703;-94
2022/05/31 15:36:50;;;;;;;2.80;1.42;;;;;;;28.12;39.72;98895.34;4762405;30;20262;-96
2022/05/31 15:39:17;;;;;;;1.60;1.40;;;;;;;28.00;39.77;98887.13;4746628;30;20274;-94
2022/05/31 15:41:44;;;;;;;1.90;1.60;;;;;;;28.03;40.94;98895.50;4758771;30;20337;-95
2022/05/31 15:44:11;;;;;;;2.45;1.85;;;;;;;28.18;42.34;98901.41;4758202;30;20283;-95
2022/05/31 15:46:38;;;;;;;1.60;1.50;;;;;;;28.18;41.03;98906.91;4759187;30;20241;-96
2022/05/31 15:49:06;;;;;;;2.92;1.60;;;;;;;28.00;41.01;98904.44;4747002;30;20242;-95
2022/05/31 15:51:40;;;;;;;2.97;2.10;;;;;;;27.92;40.70;98902.66;4760052;30;20255;-96
2022/05/31 15:54:18;;;;;;;2.90;2.03;;;;;;;27.99;41.05;98908.38;4762174;30;20253;-96
2022/05/31 15:56:45;;;;;;;3.45;2.00;;;;;;;27.80;41.23;98908.22;4759239;30;20231;-96
2022/05/31 15:59:24;;;;;;;4.72;2.92;;;;;;;27.77;40.76;98903.41;4759863;30;20278;-93
2022/05/31 16:01:51;;;;;;;2.08;1.60;;;;;;;27.65;41.33;98905.41;4743695;30;20246;-94
2022/05/31 16:04:19;;;;;;;2.95;2.65;;;;;;;27.71;41.93;98898.50;4757675;30;20265;-95
2022/05/31 16:06:46;;;;;;;3.78;3.35;;;;;;;27.69;42.86;98898.03;4758794;30;20230;-93
2022/05/31 16:09:13;;;;;;;2.75;2.25;;;;;;;27.42;43.46;98894.91;4761902;30;20326;-93
2022/05/31 16:11:41;;;;;;;5.25;3.60;;;;;;;27.54;43.23;98886.63;4747107;30;20239;-93
2022/05/31 16:14:13;;;;;;;5.72;5.10;;;;;;;27.37;44.17;98881.41;4745852;29;20242;-93
2022/05/31 16:16:40;;;;;;;2.75;1.88;;;;;;;27.32;43.95;98886.34;4750580;30;20239;-94
2022/05/31 16:19:07;;;;;;;1.90;1.80;;;;;;;27.32;44.73;98886.34;4757788;30;20247;-94
2022/05/31 16:21:34;;;;;;;2.08;1.88;;;;;;;27.33;44.42;98890.69;4755696;30;20267;-93
2022/05/31 16:24:02;;;;;;;4.38;2.20;;;;;;;27.38;44.52;98888.50;4750076;29;20262;-92
2022/05/31 16:26:29;;;;;;;2.20;2.00;;;;;;;27.28;44.30;98888.97;4751042;30;20676;-93
2022/05/31 16:28:56;;;;;;;3.58;2.30;;;;;;;27.13;44.55;98887.75;4750005;30;20695;-95
2022/05/31 16:31:27;;;;;;;1.90;1.80;;;;;;;27.01;45.29;98882.28;4755643;30;20246;-91
2022/05/31 16:33:54;;;;;;;2.40;2.20;;;;;;;27.02;44.94;98878.38;4753489;30;20243;-95
2022/05/31 16:36:28;;;;;;;2.40;1.80;;;;;;;26.74;46.24;98875.50;4752909;30;20239;-93
2022/05/31 16:41:41;;;;;;;2.88;2.67;;;;;;;26.63;47.18;98871.63;4774525;30;20729;-94
2022/05/31 16:44:09;;;;;;;1.60;1.50;;;;;;;26.60;47.99;98869.53;4760464;30;20245;-93
2022/05/31 16:46:36;;;;;;;1.40;1.35;;;;;;;26.49;48.65;98871.16;4755493;30;20307;-93
2022/05/31 16:49:04;;;;;;;1.70;1.50;;;;;;;26.46;48.88;98866.34;4757884;30;20237;-94
2022/05/31 16:51:31;;;;;;;4.43;1.70;;;;;;;26.26;49.23;98870.00;4742813;30;20325;-93
2022/05/31 16:54:07;;;;;;;2.00;1.50;;;;;;;26.10;50.52;98858.03;4754406;30;20234;-94
2022/05/31 16:56:37;;;;;;;1.75;1.65;;;;;;;26.04;50.67;98856.63;4758750;30;20845;-96
2022/05/31 16:59:08;;;;;;;3.75;1.80;;;;;;;26.01;50.24;98860.88;4746473;30;20356;-95
2022/05/31 17:01:36;;;;;;;1.70;1.60;;;;;;;26.02;50.64;98861.69;4749587;30;20237;-94
2022/05/31 17:04:04;;;;;;;2.00;1.90;;;;;;;26.01;50.65;98851.84;4757951;30;20236;-94
2022/05/31 17:14:50;;;;;;;5.53;2.03;;;;;;;25.81;52.12;98864.47;4769471;30;20239;-94
2022/05/31 17:17:17;;;;;;;2.15;1.77;;;;;;;25.85;52.32;98868.13;4762046;30;20329;-94
2022/05/31 17:19:44;;;;;;;3.03;1.83;;;;;;;25.73;52.87;98862.63;4756407;30;20235;-93
2022/05/31 17:22:11;;;;;;;4.07;2.53;;;;;;;25.46;54.11;98853.00;4754998;30;20243;-95
2022/05/31 17:24:41;;;;;;;5.10;4.70;;;;;;;25.32;54.74;98867.00;4769792;30;20263;-95
2022/05/31 17:27:07;;;;;;;4.13;3.90;;;;;;;24.86;56.94;98870.69;4775149;30;20264;-94
2022/05/31 17:29:34;;;;;;;2.40;2.20;;;;;;;24.72;57.97;98869.31;4744991;30;20828;-94
2022/05/31 17:32:01;;;;;;;1.80;1.70;;;;;;;24.48;58.95;98873.44;4748148;30;20741;-84
2022/05/31 17:34:28;;;;;;;3.63;1.98;;;;;;;24.30;60.12;98882.06;4759995;30;20249;-94
2022/05/31 17:36:55;;;;;;;3.38;2.38;;;;;;;24.23;60.38;98876.28;4759738;30;20321;-94
2022/05/31 17:39:22;;;;;;;3.22;2.38;;;;;;;24.18;61.41;98877.25;4760070;30;20347;-94
2022/05/31 17:41:55;;;;;;;2.35;1.80;;;;;;;23.99;62.17;98872.13;4759842;30;20295;-93
2022/05/31 17:44:25;;;;;;;2.25;1.90;;;;;;;24.03;62.01;98881.28;4759922;30;20243;-94
2022/05/31 17:46:52;;;;;;;3.30;2.50;;;;;;;23.92;62.94;98871.03;4759661;30;20308;-94
2022/05/31 17:49:19;;;;;;;3.03;2.40;;;;;;;23.93;63.50;98872.63;4760333;30;20331;-94
2022/05/31 17:51:49;;;;;;;2.72;2.53;;;;;;;23.79;64.31;98875.56;4761456;30;20234;-94
2022/05/31 17:54:27;;;;;;;2.47;2.05;;;;;;;23.61;65.30;98879.41;4759049;30;20241;-94
2022/05/31 17:56:54;;;;;;;3.95;3.35;;;;;;;23.42;66.57;98871.56;4770251;30;20236;-94
2022/05/31 17:59:21;;;;;;;4.70;4.30;;;;;;;23.25;67.83;98879.72;4781147;30;20267;-95
2022/05/31 18:01:51;;;;;;;4.65;3.88;;;;;;;23.16;68.66;98876.19;4774068;30;20239;-94
2022/05/31 18:04:19;;;;;;;4.68;4.30;;;;;;;22.96;69.78;98887.72;4759240;30;20274;-95
2022/05/31 18:06:47;;;;;;;3.50;3.20;;;;;;;22.83;70.73;98887.53;4747012;30;20258;-94
2022/05/31 18:09:29;;;;;;;3.60;3.30;;;;;;;22.59;72.39;98891.75;4747550;30;20260;-95